Bayshore Gardens, Florida
Current Conditions -  °F | °C
As of 7:53 PM on Wednesday 17 Dec 2014 (Local Time) from KSRQ Reporting Station
Clear Clear  
Wind Chill: 15°   Ceiling: Unl
Heat Index: 15°   Visibility: 10mi
Dew Point: 12°   Wind: 7mph
Humidity: 81%   Direction: 340°NNW
Pressure: 30.14"   Gusts: NA
Location:  27.4402°N, 82.5786°W
Report Text: KSRQ 180053Z AUTO 34006KT 10SM CLR 15/12 A3014 RMK AO2 SLP204 T01500117
Loading
Personal Weather Stations






























Interactive Weather Map New forecast layout! Learn more

10-Day Weather Forecast

Advertisements
Track Severe Weather on mobile